Terminal Aerodrome Forecast
Issued by NWS

Home | Current Version | Previous Version | Text Only | Print | Product List | Glossary On
Versions: 1 2 3 4 5 6 7 8 9 10 11 12
000
FTUS44 KCRP 100521
TAFALI
TAF
KALI 100521Z 1006/1106 02006KT P6SM OVC050
     FM101600 01006KT P6SM OVC025
     FM101800 06006KT P6SM OVC015
     FM110300 12006KT 5SM BR OVC012=

USA.gov is the U.S. government's official web portal to all federal, state and local government web resources and services.